Time;durP1;ratioP1;P1;durP2;ratioP2;P2;SDS_P1;SDS_P2;PMS_P1;PMS_P2;Temp;Humidity;BMP_temperature;BMP_pressure;BME280_temperature;BME280_humidity;BME280_pressure;Samples;Min_cycle;Max_cycle;Signal;HPM_P1;HPM_P2
2022/09/28 00:02:24;;;;;;;20.50;14.30;;;;;;;7.53;99.87;98922.20;107836;1276;71238;-77
2022/09/28 00:04:51;;;;;;;18.70;13.90;;;;;;;7.48;99.78;98916.41;107762;1274;72865;-77
2022/09/28 00:07:18;;;;;;;20.00;13.70;;;;;;;7.45;99.77;98917.66;107607;1274;61195;-78
2022/09/28 00:09:45;;;;;;;20.30;14.20;;;;;;;7.43;99.94;98915.91;107716;1274;59314;-77
2022/09/28 00:12:11;;;;;;;20.10;14.30;;;;;;;7.41;99.81;98912.05;107578;1273;73681;-78
2022/09/28 00:14:39;;;;;;;21.50;14.20;;;;;;;7.38;99.90;98913.46;107597;1274;72318;-78
2022/09/28 00:17:07;;;;;;;20.00;14.20;;;;;;;7.37;99.80;98913.70;107636;1272;73731;-77
2022/09/28 00:19:33;;;;;;;21.30;14.70;;;;;;;7.33;99.95;98907.40;107728;1274;62014;-77
2022/09/28 00:22:00;;;;;;;20.70;14.40;;;;;;;7.31;99.89;98905.96;107876;1274;61100;-78
2022/09/28 00:24:27;;;;;;;21.10;14.10;;;;;;;7.27;99.86;98907.82;107765;1274;76227;-77
2022/09/28 00:26:56;;;;;;;24.50;15.40;;;;;;;7.23;99.62;98905.05;107728;1274;72164;-77
2022/09/28 00:29:25;;;;;;;22.80;14.40;;;;;;;7.18;99.79;98903.56;107898;1274;72905;-77
2022/09/28 00:31:59;;;;;;;23.70;15.10;;;;;;;7.14;99.88;98900.27;107973;1274;60503;-78
2022/09/28 00:34:26;;;;;;;22.20;15.70;;;;;;;7.10;99.76;98895.42;107503;1274;60496;-78
2022/09/28 00:36:53;;;;;;;22.10;15.10;;;;;;;7.08;99.90;98891.20;107998;1274;73956;-78
2022/09/28 00:39:20;;;;;;;23.30;15.70;;;;;;;7.05;99.95;98893.54;108021;1273;71157;-77
2022/09/28 00:41:47;;;;;;;23.60;15.60;;;;;;;7.03;100.00;98888.29;107691;1274;71861;-78
2022/09/28 00:44:23;;;;;;;25.00;15.20;;;;;;;7.01;100.00;98884.83;107579;1274;61362;-77
2022/09/28 00:47:00;;;;;;;22.90;15.20;;;;;;;6.98;100.00;98879.51;107954;1275;59933;-77
2022/09/28 00:50:10;;;;;;;22.30;15.70;;;;;;;6.93;99.95;98879.60;107841;1273;75714;-77
2022/09/28 00:53:00;;;;;;;21.50;14.20;;;;;;;6.90;100.00;98876.79;106910;1281;71487;-78
2022/09/28 00:55:32;;;;;;;21.90;15.30;;;;;;;6.85;100.00;98870.49;107559;1274;74230;-78
2022/09/28 00:58:03;;;;;;;23.60;14.50;;;;;;;6.83;100.00;98868.73;107916;1273;61241;-77
2022/09/28 01:00:30;;;;;;;24.70;14.80;;;;;;;6.82;100.00;98866.10;107768;1274;60511;-78
2022/09/28 01:02:58;;;;;;;23.40;15.00;;;;;;;6.81;100.00;98863.38;107869;1274;75041;-78
2022/09/28 01:05:26;;;;;;;22.50;14.00;;;;;;;6.81;100.00;98860.38;108140;1273;70386;-78
2022/09/28 01:07:55;;;;;;;20.50;13.50;;;;;;;6.80;100.00;98854.33;107719;1274;73012;-78
2022/09/28 01:10:22;;;;;;;19.70;13.00;;;;;;;6.80;100.00;98852.04;107554;1273;61291;-77
2022/09/28 01:12:48;;;;;;;20.50;12.70;;;;;;;6.81;100.00;98845.41;107411;1272;61282;-78
2022/09/28 01:15:15;;;;;;;22.70;13.60;;;;;;;6.83;100.00;98845.63;108025;1273;76205;-78
2022/09/28 01:17:48;;;;;;;19.40;13.00;;;;;;;6.85;100.00;98844.17;107596;1274;69971;-77
2022/09/28 01:20:54;;;;;;;19.40;12.60;;;;;;;6.84;100.00;98844.95;108055;1274;74808;-78
2022/09/28 01:23:44;;;;;;;21.60;12.60;;;;;;;6.86;100.00;98841.59;107743;1273;62238;-78
2022/09/28 01:26:32;;;;;;;22.80;13.10;;;;;;;6.91;100.00;98841.80;107660;1274;61491;-78
2022/09/28 01:29:07;;;;;;;23.50;13.10;;;;;;;6.98;100.00;98835.95;107669;1274;74802;-78
2022/09/28 01:31:35;;;;;;;19.80;12.60;;;;;;;7.01;100.00;98830.20;107648;1274;72639;-77
2022/09/28 01:34:35;;;;;;;19.20;12.80;;;;;;;7.04;100.00;98828.67;107512;1274;73308;-78
2022/09/28 01:37:08;;;;;;;21.50;12.50;;;;;;;7.09;100.00;98824.42;108037;1274;60339;-78
2022/09/28 01:39:40;;;;;;;19.70;13.30;;;;;;;7.15;100.00;98822.46;107777;1274;60291;-79
2022/09/28 01:42:15;;;;;;;21.00;12.20;;;;;;;7.21;100.00;98824.22;108037;1274;75261;-78
2022/09/28 01:44:46;;;;;;;19.90;12.40;;;;;;;7.26;100.00;98820.78;107929;1273;71455;-78
2022/09/28 01:47:16;;;;;;;17.40;11.80;;;;;;;7.31;100.00;98820.02;107944;1274;72168;-77
2022/09/28 01:49:48;;;;;;;17.50;11.40;;;;;;;7.36;100.00;98816.98;107673;1274;62785;-79
2022/09/28 01:52:24;;;;;;;20.70;11.70;;;;;;;7.43;100.00;98810.38;107867;1274;61459;-78
2022/09/28 01:54:56;;;;;;;17.90;10.90;;;;;;;7.48;100.00;98806.29;107768;1274;74759;-79
2022/09/28 01:57:32;;;;;;;16.80;11.30;;;;;;;7.52;100.00;98806.98;107776;1274;72324;-78
2022/09/28 02:00:09;;;;;;;16.80;11.00;;;;;;;7.56;100.00;98803.55;108203;1274;74205;-78
2022/09/28 02:02:47;;;;;;;17.30;11.20;;;;;;;7.59;100.00;98803.98;107946;1274;62249;-78
2022/09/28 02:05:23;;;;;;;16.20;10.80;;;;;;;7.62;100.00;98802.89;107841;1274;60274;-78
2022/09/28 02:08:02;;;;;;;16.30;11.00;;;;;;;7.65;100.00;98800.34;107672;1274;74192;-78
2022/09/28 02:10:40;;;;;;;15.50;10.70;;;;;;;7.68;99.96;98797.59;107770;1273;72106;-78
2022/09/28 02:13:18;;;;;;;16.20;10.20;;;;;;;7.70;100.00;98795.89;107923;1274;73281;-78
2022/09/28 02:15:55;;;;;;;17.20;10.30;;;;;;;7.71;100.00;98797.59;107950;1274;61182;-78
2022/09/28 02:18:21;;;;;;;15.30;10.40;;;;;;;7.75;99.93;98791.86;107757;1273;60601;-78
2022/09/28 02:21:08;;;;;;;13.00;10.10;;;;;;;7.77;99.85;98788.77;107861;1273;74953;-77
2022/09/28 02:23:39;;;;;;;12.70;9.70;;;;;;;7.80;99.90;98786.98;107719;1275;70388;-78
2022/09/28 02:26:13;;;;;;;12.60;9.10;;;;;;;7.82;99.92;98786.41;107514;1274;71762;-79
2022/09/28 02:28:39;;;;;;;13.90;9.50;;;;;;;7.84;99.72;98787.67;107879;1274;61379;-78
2022/09/28 02:31:09;;;;;;;12.40;9.00;;;;;;;7.87;99.48;98783.77;107868;1274;61427;-78
2022/09/28 02:33:40;;;;;;;12.90;9.30;;;;;;;7.88;99.50;98783.36;107998;1274;73620;-78
2022/09/28 02:36:10;;;;;;;13.30;9.10;;;;;;;7.89;99.68;98784.55;108003;1274;71495;-78
2022/09/28 02:38:37;;;;;;;11.90;8.30;;;;;;;7.91;99.58;98774.95;107752;1274;72339;-78
2022/09/28 02:41:15;;;;;;;10.40;8.60;;;;;;;7.93;99.45;98776.42;107761;1274;61262;-78
2022/09/28 02:44:00;;;;;;;11.70;9.00;;;;;;;7.94;99.34;98778.20;107952;1273;62122;-79
2022/09/28 02:46:34;;;;;;;16.00;8.90;;;;;;;7.95;99.47;98774.42;107635;1274;76076;-77
2022/09/28 02:49:14;;;;;;;11.70;8.70;;;;;;;7.97;99.62;98774.58;107829;1274;72493;-78
2022/09/28 02:52:00;;;;;;;12.00;8.80;;;;;;;7.98;99.10;98770.45;107781;1274;72966;-78
2022/09/28 02:55:00;;;;;;;12.00;8.80;;;;;;;7.99;99.25;98773.93;108043;1275;61174;-79
2022/09/28 02:57:46;;;;;;;12.30;8.60;;;;;;;8.02;99.56;98770.55;107882;1274;61297;-78
2022/09/28 03:00:21;;;;;;;14.30;9.30;;;;;;;8.05;99.40;98768.91;107503;1274;75890;-79
2022/09/28 03:02:58;;;;;;;15.10;9.60;;;;;;;8.04;98.82;98766.85;107935;1273;70912;-78
2022/09/28 03:05:29;;;;;;;13.50;9.80;;;;;;;8.04;98.98;98765.11;107452;1272;73906;-78
2022/09/28 03:08:02;;;;;;;13.10;10.50;;;;;;;8.04;98.96;98766.20;108035;1274;62169;-78
2022/09/28 03:10:35;;;;;;;12.50;9.70;;;;;;;8.05;99.12;98760.42;107702;1273;61865;-77
2022/09/28 03:13:03;;;;;;;13.00;9.70;;;;;;;8.06;99.06;98760.23;107908;1274;74903;-78
2022/09/28 03:15:32;;;;;;;13.10;9.40;;;;;;;8.09;99.10;98756.36;107826;1274;72347;-78
2022/09/28 03:17:59;;;;;;;13.60;9.70;;;;;;;8.11;99.17;98755.73;108039;1274;74571;-78
2022/09/28 03:20:28;;;;;;;10.90;9.00;;;;;;;8.12;99.31;98753.56;107849;1274;62511;-79
2022/09/28 03:22:55;;;;;;;13.10;9.30;;;;;;;8.10;98.88;98756.39;107847;1277;60734;-79
2022/09/28 03:25:41;;;;;;;14.00;9.50;;;;;;;8.08;98.70;98755.11;107675;1274;78070;-79
2022/09/28 03:28:08;;;;;;;12.60;9.10;;;;;;;8.05;98.71;98756.25;107907;1274;71204;-79
2022/09/28 03:30:35;;;;;;;14.30;8.40;;;;;;;8.04;98.61;98756.56;108105;1274;71263;-79
2022/09/28 03:33:02;;;;;;;10.00;8.40;;;;;;;8.01;98.63;98757.03;107735;1274;62802;-78
2022/09/28 03:35:29;;;;;;;10.50;8.40;;;;;;;8.01;98.90;98755.86;108077;1274;60708;-79
2022/09/28 03:37:56;;;;;;;12.10;8.30;;;;;;;7.98;99.19;98749.92;107626;1274;74894;-79
2022/09/28 03:40:22;;;;;;;12.40;8.70;;;;;;;7.98;99.05;98747.37;107735;1274;72472;-78
2022/09/28 03:42:49;;;;;;;11.80;8.00;;;;;;;7.98;99.31;98747.01;107626;1273;73136;-78
2022/09/28 03:45:16;;;;;;;13.70;8.40;;;;;;;7.96;99.12;98747.89;107869;1274;61533;-78
2022/09/28 03:47:47;;;;;;;10.40;8.30;;;;;;;7.95;99.33;98749.41;107897;1274;61135;-77
2022/09/28 03:50:14;;;;;;;11.90;8.50;;;;;;;7.96;99.43;98746.27;107804;1274;76608;-78
2022/09/28 03:52:41;;;;;;;10.80;8.50;;;;;;;8.00;99.78;98745.66;107656;1275;72221;-78
2022/09/28 03:55:09;;;;;;;10.80;8.60;;;;;;;8.03;99.76;98743.81;108010;1274;71785;-78
2022/09/28 03:57:37;;;;;;;13.40;8.70;;;;;;;8.07;99.81;98740.32;107703;1274;61784;-77
2022/09/28 04:00:05;;;;;;;12.30;8.60;;;;;;;8.11;99.92;98740.27;108050;1274;59888;-77
2022/09/28 04:02:33;;;;;;;10.80;8.30;;;;;;;8.12;99.68;98733.97;107729;1274;75224;-77
2022/09/28 04:05:00;;;;;;;12.10;8.90;;;;;;;8.13;99.53;98734.70;107672;1274;73364;-77
2022/09/28 04:07:27;;;;;;;11.10;8.70;;;;;;;8.15;99.56;98732.05;107869;1274;72711;-78
2022/09/28 04:09:57;;;;;;;12.10;8.40;;;;;;;8.20;99.63;98733.50;108103;1274;62380;-78
2022/09/28 04:12:24;;;;;;;13.20;8.80;;;;;;;8.21;99.67;98727.89;107813;1274;61821;-79
2022/09/28 04:14:51;;;;;;;12.10;8.50;;;;;;;8.20;99.60;98725.00;107699;1274;73770;-79
2022/09/28 04:17:18;;;;;;;11.70;8.70;;;;;;;8.20;99.40;98717.92;107511;1274;71632;-78
2022/09/28 04:19:45;;;;;;;13.00;8.80;;;;;;;8.22;99.61;98720.86;107822;1274;73949;-78
2022/09/28 04:22:13;;;;;;;11.50;8.80;;;;;;;8.23;99.75;98723.33;107542;1274;62722;-78
2022/09/28 04:24:42;;;;;;;12.60;8.40;;;;;;;8.23;99.59;98718.74;107838;1274;61438;-78
2022/09/28 04:29:54;;;;;;;14.00;9.00;;;;;;;8.23;99.53;98717.73;107742;1274;72649;-78
2022/09/28 04:32:21;;;;;;;13.90;9.10;;;;;;;8.24;99.54;98718.09;108061;1274;72701;-77
2022/09/28 04:34:50;;;;;;;14.80;9.00;;;;;;;8.25;99.65;98719.64;107635;1274;61785;-77
2022/09/28 04:37:17;;;;;;;16.00;9.60;;;;;;;8.24;99.44;98715.80;107769;1274;61288;-77
2022/09/28 04:39:44;;;;;;;13.30;8.60;;;;;;;8.25;99.87;98713.61;107683;1274;74956;-77
2022/09/28 04:42:14;;;;;;;13.10;9.40;;;;;;;8.26;99.69;98712.72;107970;1274;71362;-80
2022/09/28 04:44:41;;;;;;;13.40;9.30;;;;;;;8.27;99.77;98709.79;108095;1274;72646;-81
2022/09/28 04:47:08;;;;;;;11.70;8.80;;;;;;;8.27;99.60;98712.18;107877;1274;61607;-81
2022/09/28 04:49:37;;;;;;;13.70;8.50;;;;;;;8.28;99.63;98709.83;108118;1274;61078;-80
2022/09/28 04:52:05;;;;;;;13.60;9.00;;;;;;;8.29;99.78;98710.15;107867;1274;76089;-81
2022/09/28 04:54:31;;;;;;;14.70;9.60;;;;;;;8.31;99.96;98707.49;107849;1274;71355;-80
2022/09/28 04:56:59;;;;;;;12.90;8.70;;;;;;;8.33;99.88;98705.93;108205;1274;72721;-80
2022/09/28 04:59:25;;;;;;;14.60;9.20;;;;;;;8.34;99.70;98706.27;107831;1273;61983;-80
2022/09/28 05:01:52;;;;;;;14.30;9.40;;;;;;;8.36;99.66;98703.81;108056;1274;61277;-81
2022/09/28 05:04:19;;;;;;;16.30;9.20;;;;;;;8.36;99.90;98704.59;108256;1274;75059;-81
2022/09/28 05:06:51;;;;;;;12.50;9.40;;;;;;;8.38;99.83;98704.42;108076;1274;71456;-81
2022/09/28 05:09:18;;;;;;;14.50;9.40;;;;;;;8.38;99.56;98699.73;107866;1274;74180;-80
2022/09/28 05:11:47;;;;;;;12.60;9.00;;;;;;;8.39;99.91;98703.36;107713;1274;60419;-80
2022/09/28 05:14:15;;;;;;;12.60;9.40;;;;;;;8.39;99.69;98703.52;108145;1274;61572;-80
2022/09/28 05:16:43;;;;;;;14.20;9.50;;;;;;;8.37;99.45;98705.55;108074;1274;74568;-81
2022/09/28 05:19:11;;;;;;;14.20;9.40;;;;;;;8.36;99.79;98702.31;107764;1277;71021;-75
2022/09/28 05:21:38;;;;;;;12.40;9.00;;;;;;;8.37;99.93;98702.15;107831;1274;72859;-75
2022/09/28 05:24:06;;;;;;;13.40;9.00;;;;;;;8.40;99.91;98702.55;107943;1274;62262;-75
2022/09/28 05:26:33;;;;;;;14.50;9.00;;;;;;;8.42;99.95;98704.64;107886;1274;60435;-75
2022/09/28 05:29:00;;;;;;;13.00;9.50;;;;;;;8.42;99.93;98702.45;107170;1274;74680;-75
2022/09/28 05:31:27;;;;;;;14.80;9.60;;;;;;;8.45;99.94;98702.27;107832;1273;72396;-75
2022/09/28 05:33:54;;;;;;;11.90;8.60;;;;;;;8.46;99.82;98700.84;107684;1274;73360;-76
2022/09/28 05:36:21;;;;;;;11.70;8.90;;;;;;;8.47;99.82;98701.05;107805;1272;61489;-75
2022/09/28 05:38:47;;;;;;;12.60;8.80;;;;;;;8.49;99.96;98700.74;107297;1274;61433;-75
2022/09/28 05:41:14;;;;;;;12.50;8.50;;;;;;;8.51;99.85;98698.79;107869;1274;76011;-75
2022/09/28 05:43:42;;;;;;;12.40;8.60;;;;;;;8.52;99.79;98696.70;107917;1274;71358;-75
2022/09/28 05:46:10;;;;;;;14.20;8.70;;;;;;;8.53;99.98;98695.64;108013;1274;74336;-75
2022/09/28 05:48:37;;;;;;;11.80;8.30;;;;;;;8.54;99.85;98696.86;107770;1274;61344;-75
2022/09/28 05:51:03;;;;;;;12.40;8.60;;;;;;;8.54;99.81;98697.42;107477;1274;61604;-75
2022/09/28 05:53:30;;;;;;;11.20;7.50;;;;;;;8.54;99.91;98693.97;107460;1274;74811;-75
2022/09/28 05:55:58;;;;;;;12.10;7.60;;;;;;;8.54;99.85;98694.50;107770;1274;72330;-75
2022/09/28 05:58:25;;;;;;;11.70;7.70;;;;;;;8.55;99.98;98693.08;107700;1274;71632;-74
2022/09/28 06:00:55;;;;;;;10.50;7.30;;;;;;;8.55;99.78;98697.70;107555;1276;61520;-75
2022/09/28 06:03:22;;;;;;;10.90;7.40;;;;;;;8.54;99.77;98693.05;107974;1274;61611;-76
2022/09/28 06:05:49;;;;;;;9.50;7.30;;;;;;;8.54;99.96;98692.63;107385;1274;76124;-75
2022/09/28 06:08:16;;;;;;;11.60;7.10;;;;;;;8.56;99.93;98694.91;107825;1274;72245;-75
2022/09/28 06:10:43;;;;;;;10.10;7.40;;;;;;;8.57;99.88;98695.27;107327;1274;73257;-75
2022/09/28 06:13:10;;;;;;;10.90;7.30;;;;;;;8.57;99.74;98695.05;107525;1273;62206;-75
2022/09/28 06:15:40;;;;;;;13.70;6.90;;;;;;;8.59;99.98;98697.21;107450;1274;61188;-75
2022/09/28 06:18:15;;;;;;;10.00;6.50;;;;;;;8.58;99.73;98697.63;107931;1274;76090;-76
2022/09/28 06:20:42;;;;;;;11.90;6.80;;;;;;;8.57;99.77;98699.53;108067;1274;71132;-75
2022/09/28 06:23:09;;;;;;;11.10;7.30;;;;;;;8.57;99.96;98699.02;107613;1274;73504;-76
2022/09/28 06:25:37;;;;;;;12.20;6.70;;;;;;;8.57;99.91;98701.02;107839;1273;61177;-76
2022/09/28 06:28:06;;;;;;;10.30;6.60;;;;;;;8.59;99.98;98704.81;107560;1274;61769;-75
2022/09/28 06:30:37;;;;;;;7.90;6.40;;;;;;;8.59;99.98;98701.80;107300;1274;75899;-76
2022/09/28 06:33:05;;;;;;;9.70;6.60;;;;;;;8.61;99.93;98704.67;107589;1274;69908;-75
2022/09/28 06:35:32;;;;;;;10.30;6.40;;;;;;;8.63;99.93;98702.10;107815;1274;73534;-75
2022/09/28 06:38:00;;;;;;;10.60;7.00;;;;;;;8.65;99.99;98706.85;107891;1274;60657;-75
2022/09/28 06:40:27;;;;;;;10.10;6.60;;;;;;;8.70;100.00;98709.88;107727;1273;61619;-75
2022/09/28 06:43:03;;;;;;;10.50;6.30;;;;;;;8.74;100.00;98711.55;107745;1274;74917;-75
2022/09/28 06:45:30;;;;;;;10.80;6.10;;;;;;;8.76;100.00;98710.49;107278;1274;72615;-75
2022/09/28 06:47:58;;;;;;;10.60;6.40;;;;;;;8.78;100.00;98706.98;107301;1274;74139;-75
2022/09/28 06:50:26;;;;;;;10.10;6.60;;;;;;;8.81;99.88;98713.64;107753;1274;62606;-74
2022/09/28 06:52:54;;;;;;;10.50;6.40;;;;;;;8.86;99.98;98717.73;107764;1274;61447;-75
2022/09/28 06:55:21;;;;;;;7.70;6.30;;;;;;;8.90;99.99;98720.23;107699;1274;73953;-75
2022/09/28 06:57:58;;;;;;;8.60;6.30;;;;;;;8.92;100.00;98719.99;107365;1276;70804;-75
2022/09/28 07:00:32;;;;;;;7.40;5.60;;;;;;;8.96;99.92;98720.91;107874;1274;72907;-74
2022/09/28 07:03:02;;;;;;;7.80;5.80;;;;;;;8.97;99.72;98723.02;107747;1274;61178;-75
2022/09/28 07:05:30;;;;;;;9.80;5.90;;;;;;;9.00;99.96;98718.29;107537;1274;60607;-75
2022/09/28 07:07:57;;;;;;;8.90;6.10;;;;;;;9.04;99.83;98716.36;107598;1274;75608;-75
2022/09/28 07:10:28;;;;;;;8.90;6.30;;;;;;;9.04;99.80;98720.34;107678;1274;71400;-75
2022/09/28 07:12:58;;;;;;;9.80;6.00;;;;;;;9.08;99.78;98719.65;107406;1274;75623;-75
2022/09/28 07:15:25;;;;;;;8.10;6.20;;;;;;;9.12;99.65;98721.19;107778;1274;62795;-74
2022/09/28 07:17:56;;;;;;;9.20;5.90;;;;;;;9.17;99.78;98722.61;108011;1274;60578;-75
2022/09/28 07:20:29;;;;;;;8.70;5.80;;;;;;;9.20;99.49;98723.08;107543;1274;75993;-75
2022/09/28 07:23:00;;;;;;;8.40;6.00;;;;;;;9.22;99.48;98729.73;107595;1274;70654;-75
2022/09/28 07:25:48;;;;;;;6.90;5.50;;;;;;;9.23;99.34;98730.09;107656;1274;72901;-75
2022/09/28 07:28:16;;;;;;;8.90;5.70;;;;;;;9.25;99.28;98731.22;107732;1273;61873;-74
2022/09/28 07:30:43;;;;;;;8.20;5.30;;;;;;;9.29;99.29;98735.10;107412;1274;60372;-74
2022/09/28 07:33:13;;;;;;;6.80;5.20;;;;;;;9.29;99.11;98734.29;107665;1274;74929;-74
2022/09/28 07:35:41;;;;;;;7.70;5.30;;;;;;;9.32;99.34;98737.48;108068;1274;71429;-74
2022/09/28 07:38:09;;;;;;;6.10;4.60;;;;;;;9.36;99.41;98740.23;107810;1274;72665;-74
2022/09/28 07:43:22;;;;;;;7.10;4.60;;;;;;;9.38;99.04;98741.92;107215;1274;61534;-74
2022/09/28 07:45:53;;;;;;;9.30;4.90;;;;;;;9.38;98.93;98746.00;107657;1273;74950;-73
2022/09/28 07:48:21;;;;;;;7.10;5.20;;;;;;;9.39;98.88;98745.23;107615;1274;70617;-74
2022/09/28 07:50:56;;;;;;;6.80;4.90;;;;;;;9.39;98.66;98752.13;107713;1274;72882;-74
2022/09/28 07:53:24;;;;;;;6.90;4.80;;;;;;;9.42;98.93;98749.87;108159;1274;61857;-75
2022/09/28 07:55:56;;;;;;;7.00;4.70;;;;;;;9.41;98.67;98751.79;107691;1274;60550;-73
2022/09/28 07:58:23;;;;;;;6.30;4.70;;;;;;;9.42;98.79;98754.42;107515;1274;75751;-74
2022/09/28 08:00:50;;;;;;;6.80;4.30;;;;;;;9.45;98.98;98755.80;107629;1273;71335;-74
2022/09/28 08:03:18;;;;;;;5.40;4.40;;;;;;;9.49;98.98;98758.61;107825;1274;72379;-74
2022/09/28 08:05:46;;;;;;;6.20;4.40;;;;;;;9.51;98.53;98764.30;107347;1274;62175;-75
2022/09/28 08:08:14;;;;;;;6.40;4.70;;;;;;;9.51;98.41;98765.73;107590;1273;61779;-75
2022/09/28 08:10:44;;;;;;;7.30;4.80;;;;;;;9.51;98.34;98765.20;107094;1274;74867;-75
2022/09/28 08:13:13;;;;;;;6.60;4.80;;;;;;;9.50;98.46;98765.44;107904;1274;72494;-75
2022/09/28 08:15:41;;;;;;;5.90;4.60;;;;;;;9.52;98.48;98768.40;107899;1273;74012;-75
2022/09/28 08:18:08;;;;;;;7.00;5.10;;;;;;;9.52;98.21;98771.05;107406;1274;61381;-75
2022/09/28 08:23:22;;;;;;;7.30;4.60;;;;;;;9.50;98.53;98777.13;107508;1274;74344;-75
2022/09/28 08:25:52;;;;;;;6.10;3.90;;;;;;;9.48;98.19;98781.98;107475;1274;70306;-75
2022/09/28 08:28:21;;;;;;;4.40;2.30;;;;;;;9.44;97.49;98786.61;107822;1274;72828;-75
2022/09/28 08:30:48;;;;;;;3.00;1.80;;;;;;;9.38;97.38;98792.36;107862;1274;61233;-75
2022/09/28 08:33:17;;;;;;;2.70;1.40;;;;;;;9.34;97.06;98791.27;107482;1273;61144;-75
2022/09/28 08:35:45;;;;;;;4.90;1.70;;;;;;;9.28;96.28;98796.25;107257;1276;74813;-75
2022/09/28 08:38:13;;;;;;;3.70;2.10;;;;;;;9.24;96.24;98799.65;106953;1274;71338;-74
2022/09/28 08:41:02;;;;;;;4.70;2.50;;;;;;;9.20;96.39;98796.25;107223;1276;72984;-73
2022/09/28 08:44:04;;;;;;;8.20;4.60;;;;;;;9.17;96.70;98801.33;107382;1274;61382;-75
2022/09/28 08:46:41;;;;;;;7.70;3.90;;;;;;;9.20;97.12;98804.80;107673;1274;61301;-75
2022/09/28 08:49:24;;;;;;;7.40;4.50;;;;;;;9.24;97.44;98807.55;108058;1274;76061;-75
2022/09/28 08:52:16;;;;;;;6.20;4.60;;;;;;;9.30;97.72;98808.16;107391;1274;71173;-73
2022/09/28 08:54:55;;;;;;;6.30;4.50;;;;;;;9.33;97.93;98811.85;107423;1274;72076;-74
2022/09/28 08:57:50;;;;;;;7.00;4.70;;;;;;;9.34;97.69;98816.20;107130;1274;62185;-75
2022/09/28 09:00:32;;;;;;;7.50;4.60;;;;;;;9.34;97.95;98821.98;106887;1277;61266;-77
2022/09/28 09:03:04;;;;;;;4.70;3.50;;;;;;;9.32;97.64;98823.34;107552;1274;75026;-74
2022/09/28 09:05:51;;;;;;;5.50;3.40;;;;;;;9.28;97.64;98825.73;107881;1274;72479;-75
2022/09/28 09:08:28;;;;;;;8.30;3.20;;;;;;;9.14;97.17;98828.96;108067;1274;73909;-75
2022/09/28 09:11:22;;;;;;;6.90;3.10;;;;;;;8.98;97.37;98832.47;107391;1274;61965;-75
2022/09/28 09:14:01;;;;;;;4.80;3.10;;;;;;;8.81;97.96;98837.53;107602;1274;62364;-74
2022/09/28 09:16:45;;;;;;;4.60;2.70;;;;;;;8.69;98.59;98844.00;107610;1274;74427;-73
2022/09/28 09:19:31;;;;;;;6.10;3.50;;;;;;;8.58;98.97;98844.39;106999;1274;72538;-74
2022/09/28 09:22:10;;;;;;;8.40;3.40;;;;;;;8.51;99.21;98842.14;107559;1274;74286;-71
2022/09/28 09:25:04;;;;;;;7.00;2.80;;;;;;;8.47;99.75;98839.02;107628;1274;61417;-72
2022/09/28 09:27:55;;;;;;;6.90;3.00;;;;;;;8.41;99.95;98843.88;107925;1274;60178;-71
2022/09/28 09:30:23;;;;;;;6.10;2.90;;;;;;;8.36;99.91;98848.35;107538;1274;74709;-73
2022/09/28 09:33:14;;;;;;;6.30;3.20;;;;;;;8.34;99.97;98852.73;107668;1274;70069;-77
2022/09/28 09:36:24;;;;;;;5.50;3.20;;;;;;;8.36;100.00;98856.08;107261;1273;74573;-72
2022/09/28 09:39:00;;;;;;;4.70;3.40;;;;;;;8.38;100.00;98862.70;107419;1274;61281;-72
2022/09/28 09:41:47;;;;;;;4.90;3.40;;;;;;;8.41;100.00;98860.63;107399;1274;61871;-73
2022/09/28 09:44:55;;;;;;;6.10;3.70;;;;;;;8.45;100.00;98866.54;107532;1274;74641;-73
2022/09/28 09:48:02;;;;;;;8.40;4.00;;;;;;;8.53;100.00;98866.69;108010;1274;72289;-73
2022/09/28 09:50:29;;;;;;;8.30;3.70;;;;;;;8.67;100.00;98869.45;107533;1274;72902;-73
2022/09/28 09:53:14;;;;;;;5.30;4.00;;;;;;;8.76;100.00;98872.24;107539;1274;61368;-71
2022/09/28 09:55:44;;;;;;;9.00;4.50;;;;;;;8.88;100.00;98877.38;107385;1274;60763;-73
2022/09/28 09:58:29;;;;;;;6.90;4.00;;;;;;;8.98;100.00;98881.49;107432;1274;74986;-72
2022/09/28 10:01:25;;;;;;;6.00;3.80;;;;;;;9.06;100.00;98884.39;107312;1274;70724;-73
2022/09/28 10:03:54;;;;;;;4.50;3.10;;;;;;;9.14;99.59;98887.33;108151;1274;71251;-73
2022/09/28 10:06:34;;;;;;;2.90;2.30;;;;;;;9.24;98.73;98888.95;107550;1274;61765;-72
2022/09/28 10:09:15;;;;;;;2.50;1.50;;;;;;;9.37;98.11;98892.14;107407;1274;61924;-72
2022/09/28 10:11:44;;;;;;;3.30;1.20;;;;;;;9.49;97.11;98890.95;107366;1274;74972;-70
2022/09/28 10:14:16;;;;;;;2.10;1.30;;;;;;;9.57;95.76;98896.12;107543;1274;72569;-73
2022/09/28 10:16:47;;;;;;;2.40;1.40;;;;;;;9.67;95.37;98893.33;107586;1274;73784;-73
2022/09/28 10:19:18;;;;;;;3.40;1.60;;;;;;;9.82;95.44;98895.03;107806;1274;60562;-72
2022/09/28 10:21:49;;;;;;;4.40;3.00;;;;;;;9.95;94.49;98893.92;107754;1276;61268;-73
2022/09/28 10:24:27;;;;;;;4.40;2.40;;;;;;;10.05;93.66;98894.13;107385;1277;73990;-75
2022/09/28 10:26:58;;;;;;;8.40;2.90;;;;;;;10.18;93.61;98897.00;107169;1274;72334;-75
2022/09/28 10:29:31;;;;;;;6.50;3.70;;;;;;;10.21;92.01;98893.30;107357;1274;73929;-73
2022/09/28 10:31:57;;;;;;;7.30;3.70;;;;;;;10.24;92.09;98896.13;107712;1274;61532;-73
2022/09/28 10:34:27;;;;;;;7.60;2.90;;;;;;;10.23;91.62;98901.13;107726;1274;61188;-72
2022/09/28 10:36:59;;;;;;;4.10;2.60;;;;;;;10.22;91.45;98902.39;107351;1274;76654;-73
2022/09/28 10:39:54;;;;;;;4.30;2.90;;;;;;;10.20;91.49;98905.09;107482;1274;72512;-72
2022/09/28 10:42:32;;;;;;;3.90;2.50;;;;;;;10.21;91.72;98909.98;107882;1274;72519;-72
2022/09/28 10:45:14;;;;;;;3.50;2.70;;;;;;;10.18;91.54;98909.03;107410;1274;62305;-72
2022/09/28 10:47:43;;;;;;;3.70;2.80;;;;;;;10.16;91.84;98912.79;107423;1274;61291;-71
2022/09/28 10:50:22;;;;;;;3.70;3.00;;;;;;;10.13;91.99;98915.50;107735;1274;73703;-72
2022/09/28 10:52:49;;;;;;;5.10;2.70;;;;;;;10.09;92.10;98916.80;107478;1273;70323;-72
2022/09/28 10:55:31;;;;;;;4.80;2.50;;;;;;;10.01;91.42;98920.89;107439;1274;72824;-72
2022/09/28 10:57:58;;;;;;;2.80;1.60;;;;;;;9.89;91.45;98921.63;107755;1274;61280;-72
2022/09/28 11:00:44;;;;;;;3.40;2.20;;;;;;;9.73;92.05;98922.05;108215;1274;59893;-72
2022/09/28 11:03:31;;;;;;;3.50;2.30;;;;;;;9.47;92.29;98924.46;107675;1274;75650;-73
2022/09/28 11:06:04;;;;;;;3.80;2.30;;;;;;;9.25;92.12;98924.95;107425;1275;71267;-73
2022/09/28 11:08:40;;;;;;;3.90;2.90;;;;;;;9.04;93.17;98925.22;107383;1277;71858;-73
2022/09/28 11:11:13;;;;;;;4.10;3.00;;;;;;;8.92;93.39;98930.16;107362;1274;61573;-73
2022/09/28 11:13:50;;;;;;;4.80;3.30;;;;;;;8.83;94.13;98929.26;107104;1274;59272;-73
2022/09/28 11:16:36;;;;;;;4.10;3.70;;;;;;;8.78;94.63;98931.42;108009;1273;74881;-73
2022/09/28 11:19:27;;;;;;;4.90;3.70;;;;;;;8.76;95.27;98935.20;107716;1274;71939;-73
2022/09/28 11:21:53;;;;;;;4.90;4.10;;;;;;;8.81;95.92;98934.55;107698;1274;74061;-72
2022/09/28 11:24:23;;;;;;;6.10;4.30;;;;;;;8.91;96.18;98932.70;107597;1273;61573;-72
2022/09/28 11:26:53;;;;;;;5.30;4.60;;;;;;;8.97;96.46;98934.59;107350;1276;60604;-73
2022/09/28 11:29:25;;;;;;;6.30;4.90;;;;;;;9.03;96.40;98937.02;107767;1274;76707;-73
2022/09/28 11:31:52;;;;;;;8.30;4.50;;;;;;;9.07;96.25;98940.30;107294;1276;72476;-72
2022/09/28 11:34:25;;;;;;;5.50;4.50;;;;;;;9.08;95.44;98939.40;107926;1273;75381;-72
2022/09/28 11:37:40;;;;;;;5.90;4.40;;;;;;;9.11;95.55;98938.45;107765;1273;63049;-74
2022/09/28 11:40:33;;;;;;;5.60;4.60;;;;;;;9.16;95.18;98940.85;107898;1273;60566;-72
2022/09/28 11:43:31;;;;;;;5.50;4.30;;;;;;;9.23;94.79;98946.03;107326;1273;74844;-72
2022/09/28 11:46:10;;;;;;;5.10;4.10;;;;;;;9.28;93.86;98948.30;107534;1273;73667;-72
2022/09/28 11:49:01;;;;;;;5.40;4.20;;;;;;;9.32;92.55;98944.58;107811;1274;74069;-72
2022/09/28 11:51:34;;;;;;;6.20;4.20;;;;;;;9.35;91.21;98944.84;107287;1274;61267;-72
2022/09/28 11:54:14;;;;;;;6.20;4.70;;;;;;;9.41;91.07;98945.88;107261;1274;505535;-72
2022/09/28 11:56:46;;;;;;;5.50;4.40;;;;;;;9.49;90.35;98950.59;108097;1273;75112;-72
2022/09/28 11:59:26;;;;;;;5.00;3.80;;;;;;;9.57;90.17;98952.89;107070;1274;71399;-72
2022/09/28 12:01:57;;;;;;;5.60;4.00;;;;;;;9.62;89.15;98952.73;107374;1273;72790;-72